Time;durP1;ratioP1;P1;durP2;ratioP2;P2;SDS_P1;SDS_P2;PMS_P1;PMS_P2;Temp;Humidity;BMP_temperature;BMP_pressure;BME280_temperature;BME280_humidity;BME280_pressure;Samples;Min_cycle;Max_cycle;Signal;HPM_P1;HPM_P2
2023/05/28 00:01:37;;;;;;;4.65;3.03;;;;;;;;;;5015038;28;20133;-32
2023/05/28 00:04:04;;;;;;;6.45;3.42;;;;;;;;;;4995428;28;20042;-32
2023/05/28 00:06:30;;;;;;;5.07;2.95;;;19.50;73.60;;;;;;4995598;28;20572;-32
2023/05/28 00:08:57;;;;;;;5.00;3.20;;;20.60;74.30;;;;;;4995463;28;20142;-32
2023/05/28 00:11:24;;;;;;;6.43;3.13;;;19.90;61.00;;;;;;4995553;28;20084;-32
2023/05/28 00:13:50;;;;;;;6.38;3.22;;;20.10;74.80;;;;;;5003551;28;20049;-32
2023/05/28 00:16:19;;;;;;;5.95;3.40;;;20.10;74.20;;;;;;5015068;28;20054;-32
2023/05/28 00:18:46;;;;;;;4.90;2.97;;;20.00;66.30;;;;;;5015034;28;20458;-32
2023/05/28 00:21:13;;;;;;;6.38;3.47;;;;;;;;;;5014824;28;20134;-32
2023/05/28 00:23:40;;;;;;;6.18;3.33;;;;;;;;;;5014119;28;20046;-31
2023/05/28 00:26:07;;;;;;;5.88;3.72;;;18.60;73.30;;;;;;5014942;28;20053;-32
2023/05/28 00:28:34;;;;;;;6.82;3.15;;;19.70;65.40;;;;;;5014475;28;20758;-32
2023/05/28 00:31:02;;;;;;;5.25;3.40;;;19.70;74.70;;;;;;5014566;28;20569;-32
2023/05/28 00:33:30;;;;;;;7.40;3.42;;;20.70;64.80;;;;;;5014362;28;20053;-32
2023/05/28 00:35:56;;;;;;;4.63;2.92;;;19.50;62.00;;;;;;5013925;28;20083;-33
2023/05/28 00:38:23;;;;;;;5.90;3.03;;;20.40;74.20;;;;;;5014702;28;20124;-33
2023/05/28 00:40:50;;;;;;;5.13;2.90;;;18.80;73.50;;;;;;5014641;28;20050;-32
2023/05/28 00:43:19;;;;;;;4.63;3.20;;;19.40;63.50;;;;;;5014273;28;20045;-32
2023/05/28 00:45:48;;;;;;;4.03;2.97;;;18.90;73.50;;;;;;5014086;28;20106;-32
2023/05/28 00:48:15;;;;;;;5.15;3.10;;;;;;;;;;5014131;28;20581;-31
2023/05/28 00:50:43;;;;;;;4.70;3.00;;;20.30;75.20;;;;;;5014291;28;20482;-32
2023/05/28 00:53:10;;;;;;;5.60;2.92;;;19.90;75.00;;;;;;5014113;28;20056;-32
2023/05/28 00:55:36;;;;;;;5.45;2.90;;;19.30;73.90;;;;;;5014045;28;20108;-32
2023/05/28 00:58:05;;;;;;;7.85;3.30;;;;;;;;;;5014209;28;20049;-32
2023/05/28 01:00:32;;;;;;;5.03;3.08;;;20.70;74.90;;;;;;5014264;28;20049;-32
2023/05/28 01:02:59;;;;;;;6.72;3.10;;;19.70;69.30;;;;;;5013951;28;20135;-32
2023/05/28 01:05:25;;;;;;;4.53;2.67;;;19.60;64.30;;;;;;5014277;28;20137;-32
2023/05/28 01:07:53;;;;;;;5.85;3.00;;;19.80;57.60;;;;;;5014181;28;20152;-32
2023/05/28 01:10:20;;;;;;;5.45;3.00;;;19.70;74.40;;;;;;5013893;28;20041;-32
2023/05/28 01:12:47;;;;;;;4.07;2.83;;;20.40;75.20;;;;;;5013550;28;20056;-33
2023/05/28 01:15:14;;;;;;;4.85;2.80;;;;;;;;;;5013695;28;20145;-32
2023/05/28 01:17:41;;;;;;;6.40;3.13;;;19.90;74.50;;;;;;5013832;28;20080;-32
2023/05/28 01:20:12;;;;;;;4.32;2.85;;;19.40;73.90;;;;;;5013907;28;20085;-32
2023/05/28 01:22:39;;;;;;;7.45;3.20;;;20.00;74.30;;;;;;5013453;28;20050;-32
2023/05/28 01:25:09;;;;;;;4.38;2.80;;;19.60;56.70;;;;;;5013528;28;20092;-31
2023/05/28 01:27:38;;;;;;;5.65;2.90;;;19.60;56.70;;;;;;5013632;28;20112;-32
2023/05/28 01:30:09;;;;;;;5.53;3.10;;;19.60;74.10;;;;;;5013456;28;20079;-30
2023/05/28 01:32:36;;;;;;;4.88;3.08;;;19.60;74.90;;;;;;5013599;28;20061;-30
2023/05/28 01:35:03;;;;;;;6.20;3.00;;;19.30;73.90;;;;;;5013369;28;20042;-30
2023/05/28 01:37:29;;;;;;;5.63;2.88;;;18.50;59.70;;;;;;5012843;28;20614;-30
2023/05/28 01:39:56;;;;;;;5.45;3.17;;;;;;;;;;5013088;28;20049;-32
2023/05/28 01:42:24;;;;;;;5.45;3.13;;;19.90;75.10;;;;;;5013352;28;20132;-30
2023/05/28 01:44:51;;;;;;;4.35;2.92;;;20.00;74.70;;;;;;5013223;28;20052;-30
2023/05/28 01:47:18;;;;;;;6.28;3.10;;;19.00;74.60;;;;;;5013386;28;20054;-30
2023/05/28 01:49:45;;;;;;;6.43;3.13;;;18.70;60.20;;;;;;5013187;28;20056;-30
2023/05/28 01:52:14;;;;;;;5.22;3.00;;;20.20;74.50;;;;;;5012637;28;20499;-30
2023/05/28 01:54:41;;;;;;;4.85;3.03;;;;;;;;;;5013043;28;20240;-31
2023/05/28 01:57:07;;;;;;;5.90;3.08;;;18.40;73.40;;;;;;5013468;28;20049;-30
2023/05/28 01:59:35;;;;;;;5.00;3.15;;;18.90;74.80;;;;;;5012845;28;20136;-30
2023/05/28 02:02:02;;;;;;;6.45;3.00;;;19.30;74.80;;;;;;5012894;28;20141;-30
2023/05/28 02:04:29;;;;;;;5.13;2.50;;;;;;;;;;5012529;28;20410;-33
2023/05/28 02:06:56;;;;;;;4.60;2.65;;;19.40;74.10;;;;;;5012650;28;20410;-30
2023/05/28 02:09:23;;;;;;;4.43;2.83;;;20.00;75.30;;;;;;5012747;28;20550;-30
2023/05/28 02:11:49;;;;;;;4.35;2.78;;;19.40;67.60;;;;;;5012475;28;20137;-30
2023/05/28 02:14:16;;;;;;;4.65;3.15;;;19.70;75.20;;;;;;5012620;28;20056;-30
2023/05/28 02:16:47;;;;;;;4.97;2.90;;;19.50;56.80;;;;;;5012782;28;20060;-32
2023/05/28 02:19:14;;;;;;;5.10;3.17;;;20.10;66.00;;;;;;5012742;28;20061;-30
2023/05/28 02:21:41;;;;;;;4.88;2.80;;;19.70;74.20;;;;;;5011958;28;20084;-30
2023/05/28 02:24:08;;;;;;;5.20;3.00;;;;;;;;;;5012380;28;20052;-31
2023/05/28 02:26:35;;;;;;;5.25;2.88;;;20.00;75.30;;;;;;5012347;28;20475;-30
2023/05/28 02:29:02;;;;;;;4.53;2.90;;;;;;;;;;5012560;28;20136;-31
2023/05/28 02:31:29;;;;;;;5.35;2.90;;;19.70;74.40;;;;;;5012579;28;20145;-30
2023/05/28 02:33:57;;;;;;;4.45;2.80;;;19.70;74.80;;;;;;5012757;28;20049;-30
2023/05/28 02:36:24;;;;;;;5.53;2.70;;;;;;;;;;5011379;28;20052;-31
2023/05/28 02:38:51;;;;;;;4.88;2.92;;;;;;;;;;5012420;28;20054;-30
2023/05/28 02:41:18;;;;;;;4.32;2.60;;;18.60;62.00;;;;;;5012452;28;20129;-30
2023/05/28 02:43:45;;;;;;;5.75;3.05;;;19.70;74.10;;;;;;5012342;28;20046;-30
2023/05/28 02:46:12;;;;;;;5.75;3.17;;;19.80;62.80;;;;;;5012501;28;20049;-30
2023/05/28 02:48:39;;;;;;;4.05;2.80;;;;;;;;;;5011922;28;20420;-30
2023/05/28 02:51:07;;;;;;;5.22;2.65;;;19.70;68.30;;;;;;5012284;28;20176;-30
2023/05/28 02:53:33;;;;;;;6.22;2.83;;;19.20;74.90;;;;;;5011965;28;20475;-30
2023/05/28 02:56:00;;;;;;;4.13;2.92;;;19.30;74.10;;;;;;5012275;28;20125;-30
2023/05/28 02:58:28;;;;;;;3.83;2.72;;;19.20;68.40;;;;;;5012045;28;20049;-30
2023/05/28 03:00:55;;;;;;;6.13;2.75;;;;;;;;;;5012191;28;20538;-31
2023/05/28 03:03:22;;;;;;;6.10;2.80;;;;;;;;;;5011656;28;20487;-30
2023/05/28 03:05:50;;;;;;;3.50;2.40;;;;;;;;;;5012208;28;20081;-31
2023/05/28 03:08:18;;;;;;;4.18;2.58;;;19.70;58.90;;;;;;5012102;28;20050;-30
2023/05/28 03:10:45;;;;;;;4.70;2.70;;;;;;;;;;5012374;28;20045;-30
2023/05/28 03:13:12;;;;;;;4.95;2.88;;;19.10;74.60;;;;;;5011950;28;20053;-30
2023/05/28 03:15:39;;;;;;;5.10;2.72;;;20.20;74.60;;;;;;5011888;28;20050;-30
2023/05/28 03:18:06;;;;;;;5.38;2.80;;;19.80;65.90;;;;;;5011890;28;20579;-30
2023/05/28 03:20:32;;;;;;;4.57;2.92;;;20.40;65.40;;;;;;5015479;28;20045;-30
2023/05/28 03:22:59;;;;;;;5.25;2.65;;;18.80;73.30;;;;;;4997796;28;20060;-30
2023/05/28 03:25:27;;;;;;;5.22;2.63;;;18.60;69.00;;;;;;5015511;28;20578;-30
2023/05/28 03:27:54;;;;;;;5.35;2.63;;;19.90;67.80;;;;;;5015788;28;20133;-30
2023/05/28 03:30:21;;;;;;;5.55;2.78;;;19.40;74.10;;;;;;5015973;28;20388;-30
2023/05/28 03:32:48;;;;;;;4.20;2.65;;;19.30;73.80;;;;;;5015254;28;20057;-30
2023/05/28 03:35:15;;;;;;;4.30;2.65;;;19.30;73.80;;;;;;5015594;28;20124;-30
2023/05/28 03:37:42;;;;;;;4.20;2.42;;;19.90;61.40;;;;;;5014837;28;20561;-30
2023/05/28 03:40:09;;;;;;;7.78;2.80;;;18.90;74.40;;;;;;5015889;28;20148;-30
2023/05/28 03:42:38;;;;;;;6.60;2.50;;;18.70;63.40;;;;;;5015419;28;20057;-30
2023/05/28 03:45:06;;;;;;;5.03;2.53;;;19.60;66.20;;;;;;5015798;28;20398;-30
2023/05/28 03:47:33;;;;;;;5.50;2.70;;;19.50;64.80;;;;;;5014694;28;20045;-30
2023/05/28 03:50:00;;;;;;;4.25;3.00;;;19.50;74.10;;;;;;5015412;28;20103;-30
2023/05/28 03:52:26;;;;;;;5.40;2.70;;;18.20;58.30;;;;;;5015220;28;20137;-31
2023/05/28 03:54:53;;;;;;;5.13;2.47;;;19.40;74.70;;;;;;5015321;28;20041;-30
2023/05/28 03:57:20;;;;;;;5.15;2.75;;;18.70;74.50;;;;;;5015572;28;20128;-30
2023/05/28 03:59:48;;;;;;;5.85;2.78;;;19.30;56.40;;;;;;5015252;28;20132;-30
2023/05/28 04:02:15;;;;;;;4.60;2.70;;;19.00;65.90;;;;;;5014702;28;20049;-30
2023/05/28 04:04:41;;;;;;;4.45;2.45;;;19.50;74.20;;;;;;5015054;28;20152;-30
2023/05/28 04:07:08;;;;;;;5.00;2.53;;;19.20;74.40;;;;;;5015142;28;20495;-30
2023/05/28 04:09:35;;;;;;;5.53;2.85;;;19.40;58.60;;;;;;5015062;28;20133;-30
2023/05/28 04:12:02;;;;;;;6.50;2.67;;;18.00;59.80;;;;;;5015289;28;20145;-31
2023/05/28 04:14:29;;;;;;;5.25;2.53;;;;;;;;;;4996877;28;20446;-30
2023/05/28 04:16:58;;;;;;;5.25;2.72;;;18.50;74.20;;;;;;5014674;28;20149;-30
2023/05/28 04:19:25;;;;;;;4.05;2.45;;;19.60;74.80;;;;;;5015064;28;20065;-30
2023/05/28 04:21:52;;;;;;;5.13;2.70;;;19.20;62.80;;;;;;5015078;28;20133;-30
2023/05/28 04:24:18;;;;;;;4.28;2.63;;;18.90;73.90;;;;;;5014593;28;20137;-30
2023/05/28 04:26:46;;;;;;;3.97;2.60;;;;;;;;;;5014420;28;20056;-31
2023/05/28 04:29:15;;;;;;;5.07;2.45;;;19.40;74.60;;;;;;5013792;28;20507;-30
2023/05/28 04:31:43;;;;;;;5.63;2.65;;;20.10;67.40;;;;;;5014303;28;20132;-32
2023/05/28 04:34:11;;;;;;;5.00;2.78;;;19.20;72.50;;;;;;5014635;28;20060;-32
2023/05/28 04:36:38;;;;;;;4.45;2.45;;;19.50;75.10;;;;;;5014019;28;20121;-32
2023/05/28 04:39:05;;;;;;;3.55;2.33;;;18.60;73.90;;;;;;5014560;28;20082;-32
2023/05/28 04:41:32;;;;;;;4.90;2.65;;;;;;;;;;5014807;28;20154;-32
2023/05/28 04:43:58;;;;;;;4.25;2.42;;;19.10;74.40;;;;;;5014001;28;20060;-32
2023/05/28 04:46:29;;;;;;;2.85;2.35;;;19.70;75.30;;;;;;5014582;28;20045;-33
2023/05/28 04:48:57;;;;;;;4.13;2.47;;;;;;;;;;5013347;28;20412;-31
2023/05/28 04:51:25;;;;;;;3.63;2.47;;;19.20;56.50;;;;;;5013987;28;20046;-31
2023/05/28 04:53:52;;;;;;;4.05;2.30;;;;;;;;;;5013614;28;20046;-31
2023/05/28 04:56:19;;;;;;;4.90;2.60;;;18.10;73.30;;;;;;5013581;28;20120;-32
2023/05/28 04:58:47;;;;;;;5.10;2.70;;;;;;;;;;5013669;28;20107;-31
2023/05/28 05:01:15;;;;;;;4.35;2.40;;;19.20;74.00;;;;;;5013694;28;20054;-33
2023/05/28 05:03:42;;;;;;;4.13;2.33;;;19.50;74.80;;;;;;5013867;28;20495;-32
2023/05/28 05:06:09;;;;;;;5.28;2.33;;;;;;;;;;5013936;28;20061;-31
2023/05/28 05:08:37;;;;;;;4.05;2.42;;;19.20;75.00;;;;;;5013897;28;20042;-32
2023/05/28 05:11:06;;;;;;;3.90;2.40;;;19.50;74.80;;;;;;5013677;28;20057;-32
2023/05/28 05:13:33;;;;;;;4.03;2.13;;;;;;;;;;5013986;28;20129;-31
2023/05/28 05:15:59;;;;;;;5.88;2.45;;;19.20;75.10;;;;;;5013955;28;20132;-32
2023/05/28 05:18:26;;;;;;;4.28;2.45;;;;;;;;;;5013832;28;20056;-33
2023/05/28 05:20:55;;;;;;;3.13;2.08;;;19.10;67.50;;;;;;5013742;28;20049;-33
2023/05/28 05:23:22;;;;;;;3.67;2.20;;;20.10;75.10;;;;;;5013522;28;20514;-33
2023/05/28 05:25:50;;;;;;;4.40;2.42;;;19.50;74.30;;;;;;5013390;28;20128;-33
2023/05/28 05:28:16;;;;;;;4.03;2.40;;;18.70;74.40;;;;;;5013754;28;20128;-32
2023/05/28 05:30:43;;;;;;;3.55;2.22;;;;;;;;;;5013688;28;20056;-31
2023/05/28 05:33:10;;;;;;;4.30;2.38;;;18.40;73.80;;;;;;5013284;28;20058;-33
2023/05/28 05:35:37;;;;;;;4.15;2.50;;;19.90;74.60;;;;;;5013408;28;20050;-32
2023/05/28 05:38:05;;;;;;;2.78;2.20;;;;;;;;;;5012814;28;20080;-32
2023/05/28 05:40:32;;;;;;;3.15;2.05;;;19.20;74.00;;;;;;5012440;28;20054;-32
2023/05/28 05:43:00;;;;;;;4.30;2.50;;;19.10;74.30;;;;;;5012848;28;20077;-32
2023/05/28 05:45:27;;;;;;;3.08;2.28;;;18.60;74.00;;;;;;5012976;28;20042;-32
2023/05/28 05:47:54;;;;;;;3.65;2.28;;;;;;;;;;5013394;28;20064;-32
2023/05/28 05:50:21;;;;;;;4.57;2.33;;;19.50;74.40;;;;;;5013272;28;20129;-32
2023/05/28 05:52:48;;;;;;;4.75;2.30;;;19.50;74.80;;;;;;5009176;28;20671;-32
2023/05/28 05:55:15;;;;;;;2.92;1.90;;;19.10;75.20;;;;;;5013009;28;20125;-32
2023/05/28 05:57:41;;;;;;;4.22;2.30;;;19.00;74.40;;;;;;5013260;28;20058;-32
2023/05/28 06:00:11;;;;;;;5.75;2.15;;;19.10;56.70;;;;;;5013196;28;20125;-31
2023/05/28 06:02:38;;;;;;;4.30;2.35;;;19.20;74.30;;;;;;5012894;28;20481;-33
2023/05/28 06:05:06;;;;;;;4.72;2.80;;;18.60;60.00;;;;;;5012838;28;20051;-31
2023/05/28 06:07:33;;;;;;;4.68;2.20;;;;;;;;;;5012798;28;20046;-32
2023/05/28 06:10:00;;;;;;;4.38;2.15;;;;;;;;;;5012824;28;20057;-33
2023/05/28 06:12:27;;;;;;;6.32;2.40;;;19.40;74.70;;;;;;5012080;28;20499;-32
2023/05/28 06:14:55;;;;;;;4.38;2.10;;;;;;;;;;5012472;28;20056;-32
2023/05/28 06:17:23;;;;;;;3.85;2.30;;;18.90;74.40;;;;;;5012142;28;20050;-32
2023/05/28 06:19:50;;;;;;;5.53;2.50;;;;;;;;;;5012598;28;20187;-33
2023/05/28 06:22:17;;;;;;;4.05;1.98;;;;;;;;;;5012676;28;20049;-32
2023/05/28 06:24:44;;;;;;;4.18;2.33;;;19.00;74.10;;;;;;5012562;28;20132;-32
2023/05/28 06:27:10;;;;;;;3.50;2.20;;;18.50;73.90;;;;;;5012616;28;20045;-32
2023/05/28 06:29:38;;;;;;;3.38;2.22;;;;;;;;;;5012367;28;20132;-32
2023/05/28 06:32:05;;;;;;;2.97;2.08;;;19.30;74.30;;;;;;5012158;28;20136;-32
2023/05/28 06:34:33;;;;;;;3.97;2.20;;;19.70;74.30;;;;;;5012558;28;20054;-32
2023/05/28 06:37:00;;;;;;;3.30;2.10;;;18.80;74.40;;;;;;5012233;28;20125;-32
2023/05/28 06:39:26;;;;;;;4.60;2.47;;;19.60;74.40;;;;;;5012540;28;20093;-32
2023/05/28 06:41:54;;;;;;;4.43;2.20;;;;;;;;;;5006441;28;20056;-31
2023/05/28 06:44:20;;;;;;;3.47;2.38;;;19.00;73.90;;;;;;4993251;28;20125;-32
2023/05/28 06:46:47;;;;;;;5.05;2.33;;;19.10;74.60;;;;;;5011749;28;20128;-33
2023/05/28 06:49:14;;;;;;;5.45;2.45;;;19.10;60.70;;;;;;5012230;28;20128;-32
2023/05/28 06:51:42;;;;;;;5.35;2.70;;;19.20;75.00;;;;;;5012385;28;20123;-33
2023/05/28 06:54:09;;;;;;;3.38;2.03;;;18.80;74.80;;;;;;5011943;28;20124;-32
2023/05/28 06:56:35;;;;;;;4.82;2.25;;;20.30;74.60;;;;;;5012042;28;20060;-32
2023/05/28 06:59:02;;;;;;;4.55;2.35;;;19.70;61.20;;;;;;5008593;28;20503;-32
2023/05/28 07:01:29;;;;;;;4.13;2.00;;;19.10;74.10;;;;;;5011928;28;20132;-32
2023/05/28 07:03:55;;;;;;;3.15;2.03;;;19.00;74.10;;;;;;5012084;28;20050;-33
2023/05/28 07:06:23;;;;;;;5.43;2.30;;;;;;;;;;5011943;28;20509;-32
2023/05/28 07:08:51;;;;;;;5.38;2.40;;;18.60;74.20;;;;;;5012007;28;20054;-33
2023/05/28 07:11:17;;;;;;;6.28;2.70;;;19.10;74.80;;;;;;5011923;28;20056;-32
2023/05/28 07:13:45;;;;;;;5.05;2.30;;;19.10;56.40;;;;;;5011585;28;20136;-31
2023/05/28 07:16:12;;;;;;;4.95;2.38;;;;;;;;;;5011760;28;20042;-33
2023/05/28 07:18:39;;;;;;;5.53;2.63;;;20.20;60.00;;;;;;5011964;28;20137;-32
2023/05/28 07:21:06;;;;;;;5.80;2.67;;;19.20;74.00;;;;;;5011736;28;20416;-32
2023/05/28 07:23:33;;;;;;;5.00;2.28;;;;;;;;;;5008158;28;20041;-31
2023/05/28 07:26:01;;;;;;;4.53;2.40;;;20.00;74.80;;;;;;5007399;28;20053;-33
2023/05/28 07:28:27;;;;;;;3.92;2.58;;;19.90;71.80;;;;;;5011108;28;20053;-32
2023/05/28 07:30:54;;;;;;;5.05;2.47;;;18.50;74.50;;;;;;5011622;28;20052;-33
2023/05/28 07:33:21;;;;;;;4.18;2.25;;;;;;;;;;5008953;28;20130;-32
2023/05/28 07:35:48;;;;;;;5.88;2.58;;;18.10;73.50;;;;;;5001675;28;20045;-32
2023/05/28 07:38:15;;;;;;;3.88;2.33;;;18.70;74.20;;;;;;5009662;28;20137;-33
2023/05/28 07:40:42;;;;;;;4.53;2.53;;;18.70;69.80;;;;;;4992152;28;20435;-32
2023/05/28 07:43:10;;;;;;;4.68;2.25;;;19.20;74.10;;;;;;4998240;28;20049;-32
2023/05/28 07:45:36;;;;;;;3.53;2.30;;;20.30;74.70;;;;;;5008898;28;20057;-32
2023/05/28 07:48:04;;;;;;;5.22;2.78;;;;;;;;;;5007726;28;20050;-31
2023/05/28 07:50:31;;;;;;;4.65;2.83;;;19.70;74.30;;;;;;5010169;28;20077;-32
2023/05/28 07:52:58;;;;;;;5.20;2.42;;;;;;;;;;5010572;28;20125;-31
2023/05/28 07:55:25;;;;;;;3.13;2.20;;;19.50;73.80;;;;;;5008638;28;20089;-32
2023/05/28 07:57:52;;;;;;;3.60;2.25;;;;;;;;;;5011386;28;20176;-31
2023/05/28 08:00:20;;;;;;;5.43;2.30;;;19.60;65.90;;;;;;5011280;28;20052;-32
2023/05/28 08:02:47;;;;;;;4.53;2.30;;;19.00;73.90;;;;;;5011126;28;20050;-32
2023/05/28 08:05:15;;;;;;;4.25;2.30;;;19.90;60.00;;;;;;5010812;28;20104;-32
2023/05/28 08:07:41;;;;;;;4.20;2.20;;;19.70;74.60;;;;;;5014737;28;20041;-33
2023/05/28 08:10:08;;;;;;;4.10;2.55;;;19.20;56.50;;;;;;5013945;28;20140;-32
2023/05/28 08:12:35;;;;;;;4.47;2.60;;;19.30;73.70;;;;;;5014458;28;20510;-33
2023/05/28 08:15:02;;;;;;;4.50;2.30;;;19.60;74.60;;;;;;5014413;28;20046;-32
2023/05/28 08:17:32;;;;;;;8.77;2.75;;;20.70;61.00;;;;;;5013881;28;20046;-32
2023/05/28 08:19:59;;;;;;;4.43;2.50;;;20.20;72.50;;;;;;5011609;28;20049;-32
2023/05/28 08:22:26;;;;;;;4.75;2.60;;;19.50;73.70;;;;;;5012251;28;20050;-32
2023/05/28 08:24:53;;;;;;;4.60;2.45;;;19.40;60.20;;;;;;5013769;28;20049;-32
2023/05/28 08:27:20;;;;;;;5.45;2.40;;;19.60;74.00;;;;;;5013620;28;20117;-32
2023/05/28 08:29:47;;;;;;;13.18;2.85;;;20.00;69.00;;;;;;5013821;28;20049;-32
2023/05/28 08:32:14;;;;;;;4.72;2.67;;;18.70;73.10;;;;;;5009795;28;20045;-32
2023/05/28 08:34:42;;;;;;;4.80;2.60;;;20.20;73.90;;;;;;5013562;28;20125;-32
2023/05/28 08:37:09;;;;;;;6.32;2.28;;;;;;;;;;5010816;28;20054;-32
2023/05/28 08:39:36;;;;;;;4.15;2.58;;;19.60;73.70;;;;;;5014415;28;20104;-32
2023/05/28 08:42:02;;;;;;;4.50;2.47;;;19.80;73.60;;;;;;5014409;28;20126;-32
2023/05/28 08:44:29;;;;;;;4.00;2.60;;;;;;;;;;5013349;28;20053;-31
2023/05/28 08:46:56;;;;;;;4.85;2.20;;;19.70;73.00;;;;;;5014115;28;20046;-32
2023/05/28 08:49:24;;;;;;;4.80;2.67;;;20.30;73.30;;;;;;5013509;28;20049;-32
2023/05/28 08:51:53;;;;;;;3.53;2.47;;;20.00;55.60;;;;;;5012228;28;20041;-31
2023/05/28 08:54:20;;;;;;;2.97;2.15;;;19.80;62.20;;;;;;5013461;28;20120;-32
2023/05/28 08:56:46;;;;;;;4.45;2.60;;;19.20;72.30;;;;;;5013844;28;20042;-32
2023/05/28 08:59:13;;;;;;;5.00;2.67;;;20.20;65.80;;;;;;5013566;28;20557;-32
2023/05/28 09:01:40;;;;;;;7.47;2.67;;;19.90;58.30;;;;;;5013655;28;20049;-32
2023/05/28 09:04:07;;;;;;;4.78;2.65;;;19.90;55.20;;;;;;5013242;28;20057;-32
2023/05/28 09:06:35;;;;;;;5.55;2.42;;;19.90;72.70;;;;;;5013530;28;20076;-33
2023/05/28 09:09:03;;;;;;;4.97;2.70;;;20.70;55.60;;;;;;5013581;28;20049;-32
2023/05/28 09:11:30;;;;;;;5.05;2.25;;;;;;;;;;5012942;28;20046;-32
2023/05/28 09:13:57;;;;;;;4.75;2.50;;;19.90;57.60;;;;;;5011718;28;20056;-32
2023/05/28 09:16:24;;;;;;;6.22;2.50;;;20.30;55.10;;;;;;5010935;28;20511;-30
2023/05/28 09:18:51;;;;;;;4.10;2.70;;;;;;;;;;5012503;28;20131;-32
2023/05/28 09:21:19;;;;;;;4.35;2.83;;;20.30;55.10;;;;;;5013293;28;20137;-31
2023/05/28 09:23:47;;;;;;;4.85;2.50;;;;;;;;;;5012419;28;20057;-31
2023/05/28 09:26:15;;;;;;;3.22;2.47;;;20.40;67.20;;;;;;5013086;28;20128;-32
2023/05/28 09:28:42;;;;;;;5.88;2.60;;;20.40;73.20;;;;;;5013148;28;20073;-32
2023/05/28 09:31:09;;;;;;;3.83;2.22;;;19.50;63.30;;;;;;5012439;28;20507;-32
2023/05/28 09:33:36;;;;;;;4.55;2.80;;;20.70;67.00;;;;;;5009827;28;20133;-32
2023/05/28 09:36:03;;;;;;;5.10;2.70;;;20.00;72.90;;;;;;5010776;28;20120;-32
2023/05/28 09:38:38;;;;;;;4.18;2.40;;;21.00;72.90;;;;;;5012354;28;20119;-32
2023/05/28 09:41:05;;;;;;;5.82;2.63;;;20.40;55.50;;;;;;5012844;28;20503;-32
2023/05/28 09:43:33;;;;;;;5.40;2.80;;;20.30;72.10;;;;;;5012556;28;20100;-33
2023/05/28 09:46:07;;;;;;;5.07;2.42;;;21.20;73.40;;;;;;5012045;28;20045;-32
2023/05/28 09:48:34;;;;;;;5.55;3.33;;;21.70;72.60;;;;;;5012211;28;20049;-32
2023/05/28 09:51:01;;;;;;;5.35;2.60;;;20.50;72.50;;;;;;5012670;28;20071;-33
2023/05/28 09:53:28;;;;;;;5.18;2.58;;;20.70;72.20;;;;;;5012580;28;20045;-32
2023/05/28 09:55:55;;;;;;;7.28;3.00;;;20.90;58.20;;;;;;5009149;28;20045;-32
2023/05/28 09:58:22;;;;;;;4.13;2.67;;;20.40;56.00;;;;;;5012081;28;20129;-32
2023/05/28 10:00:54;;;;;;;5.13;2.85;;;20.70;72.40;;;;;;5012725;28;20466;-32
2023/05/28 10:03:23;;;;;;;3.38;2.47;;;20.80;72.10;;;;;;5010756;28;20052;-32
2023/05/28 10:05:52;;;;;;;5.50;2.60;;;20.80;54.80;;;;;;5012351;28;20046;-31
2023/05/28 10:08:19;;;;;;;4.18;2.45;;;20.80;71.90;;;;;;5010156;28;20479;-33
2023/05/28 10:10:46;;;;;;;4.32;2.60;;;;;;;;;;5012282;28;20068;-32
2023/05/28 10:13:13;;;;;;;3.80;2.50;;;20.50;72.50;;;;;;5012013;28;20140;-32
2023/05/28 10:15:40;;;;;;;3.50;2.55;;;;;;;;;;5012440;28;20097;-31
2023/05/28 10:18:08;;;;;;;3.83;2.47;;;20.80;72.40;;;;;;5011611;28;20130;-33
2023/05/28 10:20:35;;;;;;;3.55;2.30;;;20.90;72.40;;;;;;5012299;28;20396;-32
2023/05/28 10:23:01;;;;;;;3.67;2.38;;;20.60;71.50;;;;;;5012137;28;20114;-32
2023/05/28 10:25:29;;;;;;;4.47;2.40;;;;;;;;;;5012285;28;20402;-32
2023/05/28 10:27:58;;;;;;;4.07;2.60;;;22.00;65.70;;;;;;5011775;28;20145;-32
2023/05/28 10:30:32;;;;;;;3.85;2.33;;;20.50;71.30;;;;;;5012403;28;20046;-32
2023/05/28 10:32:59;;;;;;;4.15;2.60;;;21.80;66.30;;;;;;5009609;28;20042;-32
2023/05/28 10:35:27;;;;;;;3.30;2.40;;;20.90;71.80;;;;;;5012278;28;20145;-32
2023/05/28 10:38:06;;;;;;;3.05;2.50;;;20.80;71.40;;;;;;5006927;28;20041;-32
2023/05/28 10:40:34;;;;;;;4.80;2.75;;;20.90;54.50;;;;;;5012127;28;20125;-32
2023/05/28 10:43:00;;;;;;;4.95;2.55;;;20.30;71.90;;;;;;5011964;28;20050;-32
2023/05/28 10:45:35;;;;;;;5.07;2.63;;;20.70;63.60;;;;;;5011989;28;20050;-32
2023/05/28 10:48:02;;;;;;;4.88;2.60;;;;;;;;;;5009468;28;20053;-32
2023/05/28 10:50:30;;;;;;;3.88;2.60;;;20.50;60.00;;;;;;5011335;28;20046;-30
2023/05/28 10:53:04;;;;;;;4.30;2.42;;;21.60;61.80;;;;;;5009157;28;20046;-30
2023/05/28 10:55:49;;;;;;;3.40;2.40;;;20.50;54.30;;;;;;5011575;28;20100;-30
2023/05/28 10:58:26;;;;;;;3.28;2.45;;;20.80;71.20;;;;;;5008878;28;20046;-30
2023/05/28 11:00:53;;;;;;;5.45;2.72;;;;;;;;;;5011487;28;20054;-31
2023/05/28 11:03:38;;;;;;;3.47;2.60;;;21.80;54.90;;;;;;5010822;28;20050;-29
2023/05/28 11:06:08;;;;;;;4.05;2.63;;;22.00;72.20;;;;;;5010318;28;20064;-30
2023/05/28 11:08:45;;;;;;;3.92;2.42;;;21.10;72.20;;;;;;5011555;28;20079;-30
2023/05/28 11:11:12;;;;;;;4.00;2.63;;;21.10;54.40;;;;;;5009044;28;20077;-31
2023/05/28 11:13:39;;;;;;;4.70;2.63;;;20.60;72.00;;;;;;5010878;28;20475;-30
2023/05/28 11:16:07;;;;;;;3.35;2.72;;;21.20;63.30;;;;;;5011588;28;20064;-30
2023/05/28 11:18:34;;;;;;;3.72;2.40;;;21.00;68.50;;;;;;5011043;28;20065;-30
2023/05/28 11:21:03;;;;;;;4.30;2.78;;;21.20;71.40;;;;;;5009263;28;20045;-30
2023/05/28 11:23:32;;;;;;;5.25;2.45;;;20.90;59.80;;;;;;5010935;28;20041;-30
2023/05/28 11:25:59;;;;;;;3.63;2.55;;;;;;;;;;5011385;28;20096;-30
2023/05/28 11:28:26;;;;;;;2.92;2.35;;;21.30;71.40;;;;;;5011394;28;20045;-30
2023/05/28 11:30:53;;;;;;;3.63;2.67;;;21.50;71.90;;;;;;5011101;28;20050;-30
2023/05/28 11:33:20;;;;;;;4.50;2.75;;;21.50;72.00;;;;;;5010756;28;20054;-30
2023/05/28 11:35:46;;;;;;;3.47;2.30;;;20.10;57.20;;;;;;5011143;28;20061;-32
2023/05/28 11:38:13;;;;;;;3.50;2.45;;;;;;;;;;5009722;28;20046;-32
2023/05/28 11:40:42;;;;;;;4.78;2.38;;;21.20;54.30;;;;;;5013836;28;20129;-31
2023/05/28 11:43:09;;;;;;;2.85;2.30;;;;;;;;;;5014913;28;20149;-31
2023/05/28 11:45:41;;;;;;;3.35;2.30;;;20.40;71.50;;;;;;5015124;28;20046;-32
2023/05/28 11:48:11;;;;;;;4.50;2.53;;;21.10;71.20;;;;;;5014899;28;20050;-32
2023/05/28 11:50:38;;;;;;;6.07;2.80;;;21.60;71.80;;;;;;5012672;28;20049;-32
2023/05/28 11:53:05;;;;;;;14.73;5.70;;;;;;;;;;5014392;28;20108;-32
2023/05/28 11:55:32;;;;;;;330.17;75.30;;;21.50;58.20;;;;;;5013462;28;20136;-32
2023/05/28 11:58:00;;;;;;;280.52;64.32;;;21.20;54.60;;;;;;5015070;28;20400;-30
2023/05/28 12:00:32;;;;;;;283.80;64.15;;;20.20;70.90;;;;;;5014236;28;20052;-32
2023/05/28 12:02:59;;;;;;;283.58;63.25;;;;;;;;;;5012650;28;20041;-32
2023/05/28 12:05:26;;;;;;;285.33;65.85;;;20.30;70.90;;;;;;5014219;28;20077;-32
2023/05/28 12:07:54;;;;;;;263.20;61.05;;;21.50;63.00;;;;;;5014612;28;20041;-32
2023/05/28 12:10:21;;;;;;;244.02;57.53;;;21.30;72.10;;;;;;5013825;28;20133;-32
2023/05/28 12:12:49;;;;;;;220.38;54.10;;;20.80;71.30;;;;;;5013681;28;20085;-32
2023/05/28 12:15:17;;;;;;;217.48;50.50;;;21.30;54.80;;;;;;5014164;28;20045;-31
2023/05/28 12:17:46;;;;;;;202.73;46.65;;;21.20;56.70;;;;;;5014233;28;20053;-32
2023/05/28 12:20:32;;;;;;;185.60;44.95;;;21.00;72.10;;;;;;5014228;28;20053;-32
2023/05/28 12:23:06;;;;;;;173.60;41.90;;;21.30;72.40;;;;;;5011458;28;20573;-32
2023/05/28 12:25:45;;;;;;;148.43;40.00;;;21.20;71.90;;;;;;5014204;28;20057;-32
2023/05/28 12:28:12;;;;;;;158.15;38.95;;;;;;;;;;5014253;28;20430;-31
2023/05/28 12:30:41;;;;;;;148.35;36.92;;;21.10;71.40;;;;;;5011845;28;20461;-32
2023/05/28 12:33:08;;;;;;;148.13;35.97;;;20.70;71.50;;;;;;5014042;28;20058;-32
2023/05/28 12:35:34;;;;;;;133.05;34.45;;;20.90;62.80;;;;;;4996711;28;20050;-31
2023/05/28 12:38:02;;;;;;;133.38;34.90;;;21.10;71.80;;;;;;5010718;28;20042;-32
2023/05/28 12:40:28;;;;;;;124.18;32.80;;;21.40;60.20;;;;;;5010852;28;20072;-30
2023/05/28 12:42:55;;;;;;;119.97;32.83;;;22.40;72.00;;;;;;5013999;28;20046;-30
2023/05/28 12:45:22;;;;;;;112.22;30.55;;;20.50;71.10;;;;;;5013694;28;20517;-30
2023/05/28 12:47:50;;;;;;;115.05;31.77;;;21.80;55.30;;;;;;5013899;28;20513;-30
2023/05/28 12:50:17;;;;;;;122.13;30.75;;;;;;;;;;5013096;28;20624;-30
2023/05/28 12:52:44;;;;;;;109.25;30.88;;;20.90;72.10;;;;;;5013247;28;20491;-30
2023/05/28 12:55:10;;;;;;;111.05;31.10;;;21.50;71.60;;;;;;5014061;28;20124;-30
2023/05/28 12:57:37;;;;;;;101.45;28.17;;;21.20;64.00;;;;;;5013769;28;20409;-30
2023/05/28 13:00:06;;;;;;;93.47;27.13;;;21.50;71.90;;;;;;5013889;28;20049;-30
2023/05/28 13:02:32;;;;;;;97.07;27.13;;;22.50;72.20;;;;;;5013716;28;20128;-30
2023/05/28 13:05:01;;;;;;;99.65;26.83;;;21.40;55.00;;;;;;5011110;28;20133;-31
2023/05/28 13:07:28;;;;;;;104.32;27.02;;;21.40;63.00;;;;;;5013546;28;20060;-30